sensor_id;sensor_type;location;lat;lon;timestamp;P1;durP1;ratioP1;P2;durP2;ratioP2
61821;SDS011;47749;51.104;7.008;2024-03-17T00:00:04;10.53;;;5.63;;
61821;SDS011;47749;51.104;7.008;2024-03-17T00:00:25;10.27;;;5.55;;
61821;SDS011;47749;51.104;7.008;2024-03-17T00:00:45;9.85;;;5.70;;
61821;SDS011;47749;51.104;7.008;2024-03-17T00:01:05;11.03;;;5.47;;
61821;SDS011;47749;51.104;7.008;2024-03-17T00:01:26;10.50;;;5.32;;
61821;SDS011;47749;51.104;7.008;2024-03-17T00:01:47;8.77;;;5.20;;
61821;SDS011;47749;51.104;7.008;2024-03-17T00:02:07;8.23;;;5.15;;
61821;SDS011;47749;51.104;7.008;2024-03-17T00:02:27;10.27;;;5.40;;
61821;SDS011;47749;51.104;7.008;2024-03-17T00:02:47;10.20;;;5.20;;
61821;SDS011;47749;51.104;7.008;2024-03-17T00:03:08;7.35;;;4.88;;
61821;SDS011;47749;51.104;7.008;2024-03-17T00:03:31;7.18;;;4.85;;
61821;SDS011;47749;51.104;7.008;2024-03-17T00:03:52;8.90;;;5.10;;
61821;SDS011;47749;51.104;7.008;2024-03-17T00:04:12;7.20;;;4.43;;
61821;SDS011;47749;51.104;7.008;2024-03-17T00:04:32;7.90;;;4.67;;
61821;SDS011;47749;51.104;7.008;2024-03-17T00:04:53;7.77;;;4.83;;
61821;SDS011;47749;51.104;7.008;2024-03-17T00:05:13;7.77;;;4.97;;
61821;SDS011;47749;51.104;7.008;2024-03-17T00:05:34;7.30;;;4.50;;
61821;SDS011;47749;51.104;7.008;2024-03-17T00:06:00;7.20;;;4.50;;
61821;SDS011;47749;51.104;7.008;2024-03-17T00:06:21;7.28;;;4.57;;
61821;SDS011;47749;51.104;7.008;2024-03-17T00:06:42;7.50;;;4.90;;
61821;SDS011;47749;51.104;7.008;2024-03-17T00:07:03;8.00;;;5.30;;
61821;SDS011;47749;51.104;7.008;2024-03-17T00:07:23;8.35;;;5.15;;
61821;SDS011;47749;51.104;7.008;2024-03-17T00:07:43;7.73;;;4.80;;
61821;SDS011;47749;51.104;7.008;2024-03-17T00:08:04;8.90;;;4.75;;
61821;SDS011;47749;51.104;7.008;2024-03-17T00:08:25;9.27;;;5.20;;
61821;SDS011;47749;51.104;7.008;2024-03-17T00:08:45;9.30;;;5.57;;
61821;SDS011;47749;51.104;7.008;2024-03-17T00:09:05;8.77;;;5.33;;
61821;SDS011;47749;51.104;7.008;2024-03-17T00:09:29;8.48;;;4.78;;
61821;SDS011;47749;51.104;7.008;2024-03-17T00:09:49;8.13;;;5.00;;
61821;SDS011;47749;51.104;7.008;2024-03-17T00:10:10;10.35;;;5.40;;
61821;SDS011;47749;51.104;7.008;2024-03-17T00:10:31;8.60;;;5.47;;
61821;SDS011;47749;51.104;7.008;2024-03-17T00:10:52;8.03;;;5.10;;
61821;SDS011;47749;51.104;7.008;2024-03-17T00:11:12;8.80;;;4.70;;
61821;SDS011;47749;51.104;7.008;2024-03-17T00:11:32;8.03;;;4.80;;
61821;SDS011;47749;51.104;7.008;2024-03-17T00:11:55;8.98;;;4.82;;
61821;SDS011;47749;51.104;7.008;2024-03-17T00:12:15;8.30;;;4.70;;
61821;SDS011;47749;51.104;7.008;2024-03-17T00:12:36;8.37;;;5.03;;
61821;SDS011;47749;51.104;7.008;2024-03-17T00:12:57;8.75;;;4.65;;
61821;SDS011;47749;51.104;7.008;2024-03-17T00:13:18;7.65;;;4.38;;
61821;SDS011;47749;51.104;7.008;2024-03-17T00:13:38;7.35;;;4.30;;
61821;SDS011;47749;51.104;7.008;2024-03-17T00:13:58;8.67;;;4.70;;
61821;SDS011;47749;51.104;7.008;2024-03-17T00:14:19;7.37;;;4.57;;
61821;SDS011;47749;51.104;7.008;2024-03-17T00:14:39;8.15;;;4.68;;
61821;SDS011;47749;51.104;7.008;2024-03-17T00:15:00;8.93;;;4.40;;
61821;SDS011;47749;51.104;7.008;2024-03-17T00:15:20;8.45;;;4.40;;
61821;SDS011;47749;51.104;7.008;2024-03-17T00:15:40;9.40;;;4.50;;
61821;SDS011;47749;51.104;7.008;2024-03-17T00:16:00;9.60;;;4.53;;
61821;SDS011;47749;51.104;7.008;2024-03-17T00:16:21;6.72;;;4.28;;
61821;SDS011;47749;51.104;7.008;2024-03-17T00:16:41;7.13;;;4.90;;
61821;SDS011;47749;51.104;7.008;2024-03-17T00:17:01;7.43;;;4.93;;
61821;SDS011;47749;51.104;7.008;2024-03-17T00:17:22;8.45;;;4.60;;
61821;SDS011;47749;51.104;7.008;2024-03-17T00:17:43;8.90;;;4.75;;
61821;SDS011;47749;51.104;7.008;2024-03-17T00:18:04;7.78;;;4.75;;
61821;SDS011;47749;51.104;7.008;2024-03-17T00:18:24;8.80;;;4.77;;
61821;SDS011;47749;51.104;7.008;2024-03-17T00:18:46;8.88;;;4.72;;
61821;SDS011;47749;51.104;7.008;2024-03-17T00:19:06;8.52;;;5.55;;
61821;SDS011;47749;51.104;7.008;2024-03-17T00:19:27;8.57;;;5.80;;
61821;SDS011;47749;51.104;7.008;2024-03-17T00:19:47;9.40;;;5.93;;
61821;SDS011;47749;51.104;7.008;2024-03-17T00:20:08;8.33;;;5.67;;
61821;SDS011;47749;51.104;7.008;2024-03-17T00:20:31;8.10;;;5.45;;
61821;SDS011;47749;51.104;7.008;2024-03-17T00:20:52;8.85;;;6.10;;
61821;SDS011;47749;51.104;7.008;2024-03-17T00:21:12;9.03;;;5.60;;
61821;SDS011;47749;51.104;7.008;2024-03-17T00:21:33;9.80;;;5.53;;
61821;SDS011;47749;51.104;7.008;2024-03-17T00:21:53;9.57;;;5.40;;
61821;SDS011;47749;51.104;7.008;2024-03-17T00:22:14;8.77;;;5.30;;
61821;SDS011;47749;51.104;7.008;2024-03-17T00:22:35;7.17;;;5.10;;
61821;SDS011;47749;51.104;7.008;2024-03-17T00:22:59;8.02;;;5.47;;
61821;SDS011;47749;51.104;7.008;2024-03-17T00:23:19;7.00;;;4.90;;
61821;SDS011;47749;51.104;7.008;2024-03-17T00:23:40;8.57;;;5.03;;
61821;SDS011;47749;51.104;7.008;2024-03-17T00:24:00;8.90;;;5.30;;
61821;SDS011;47749;51.104;7.008;2024-03-17T00:24:22;8.52;;;5.30;;
61821;SDS011;47749;51.104;7.008;2024-03-17T00:24:42;7.67;;;5.27;;
61821;SDS011;47749;51.104;7.008;2024-03-17T00:25:03;8.00;;;5.30;;
61821;SDS011;47749;51.104;7.008;2024-03-17T00:25:23;8.38;;;5.10;;
61821;SDS011;47749;51.104;7.008;2024-03-17T00:25:44;7.70;;;4.93;;
61821;SDS011;47749;51.104;7.008;2024-03-17T00:26:04;9.17;;;5.10;;
61821;SDS011;47749;51.104;7.008;2024-03-17T00:26:24;8.80;;;4.95;;
61821;SDS011;47749;51.104;7.008;2024-03-17T00:26:45;8.47;;;4.80;;
61821;SDS011;47749;51.104;7.008;2024-03-17T00:27:05;7.32;;;4.85;;
61821;SDS011;47749;51.104;7.008;2024-03-17T00:27:26;7.50;;;4.70;;
61821;SDS011;47749;51.104;7.008;2024-03-17T00:27:46;7.50;;;4.70;;
61821;SDS011;47749;51.104;7.008;2024-03-17T00:28:11;7.07;;;4.82;;
61821;SDS011;47749;51.104;7.008;2024-03-17T00:28:33;8.43;;;4.85;;
61821;SDS011;47749;51.104;7.008;2024-03-17T00:28:54;8.43;;;4.55;;
61821;SDS011;47749;51.104;7.008;2024-03-17T00:29:14;7.27;;;4.60;;
61821;SDS011;47749;51.104;7.008;2024-03-17T00:29:35;7.38;;;4.88;;
61821;SDS011;47749;51.104;7.008;2024-03-17T00:29:55;8.13;;;5.10;;
61821;SDS011;47749;51.104;7.008;2024-03-17T00:30:15;7.63;;;4.70;;
61821;SDS011;47749;51.104;7.008;2024-03-17T00:30:36;8.20;;;4.63;;
61821;SDS011;47749;51.104;7.008;2024-03-17T00:30:56;8.17;;;4.83;;
61821;SDS011;47749;51.104;7.008;2024-03-17T00:31:16;8.83;;;4.73;;
61821;SDS011;47749;51.104;7.008;2024-03-17T00:31:37;9.77;;;4.70;;
61821;SDS011;47749;51.104;7.008;2024-03-17T00:31:57;10.53;;;4.73;;
61821;SDS011;47749;51.104;7.008;2024-03-17T00:32:17;7.47;;;4.47;;
61821;SDS011;47749;51.104;7.008;2024-03-17T00:32:38;6.70;;;4.33;;
61821;SDS011;47749;51.104;7.008;2024-03-17T00:32:58;6.80;;;4.60;;
61821;SDS011;47749;51.104;7.008;2024-03-17T00:33:19;6.72;;;4.43;;
61821;SDS011;47749;51.104;7.008;2024-03-17T00:33:39;6.93;;;4.70;;
61821;SDS011;47749;51.104;7.008;2024-03-17T00:33:59;7.93;;;4.70;;
61821;SDS011;47749;51.104;7.008;2024-03-17T00:34:20;8.43;;;4.80;;
61821;SDS011;47749;51.104;7.008;2024-03-17T00:34:40;8.13;;;4.60;;
61821;SDS011;47749;51.104;7.008;2024-03-17T00:35:00;6.60;;;4.37;;
61821;SDS011;47749;51.104;7.008;2024-03-17T00:35:21;8.35;;;4.45;;
61821;SDS011;47749;51.104;7.008;2024-03-17T00:35:41;8.20;;;4.47;;
61821;SDS011;47749;51.104;7.008;2024-03-17T00:36:01;8.10;;;4.63;;
61821;SDS011;47749;51.104;7.008;2024-03-17T00:36:21;7.28;;;4.43;;
61821;SDS011;47749;51.104;7.008;2024-03-17T00:36:42;7.00;;;4.60;;
61821;SDS011;47749;51.104;7.008;2024-03-17T00:37:02;7.80;;;4.50;;
61821;SDS011;47749;51.104;7.008;2024-03-17T00:37:23;8.48;;;5.07;;
61821;SDS011;47749;51.104;7.008;2024-03-17T00:37:43;8.43;;;5.37;;
61821;SDS011;47749;51.104;7.008;2024-03-17T00:38:04;7.13;;;4.60;;
61821;SDS011;47749;51.104;7.008;2024-03-17T00:38:30;6.90;;;4.25;;
61821;SDS011;47749;51.104;7.008;2024-03-17T00:38:50;7.47;;;4.40;;
61821;SDS011;47749;51.104;7.008;2024-03-17T00:39:12;7.20;;;4.60;;
61821;SDS011;47749;51.104;7.008;2024-03-17T00:39:32;7.72;;;4.57;;
61821;SDS011;47749;51.104;7.008;2024-03-17T00:39:52;7.70;;;4.67;;
61821;SDS011;47749;51.104;7.008;2024-03-17T00:40:13;7.60;;;4.30;;
61821;SDS011;47749;51.104;7.008;2024-03-17T00:40:34;6.32;;;4.07;;
61821;SDS011;47749;51.104;7.008;2024-03-17T00:40:54;8.10;;;4.47;;
61821;SDS011;47749;51.104;7.008;2024-03-17T00:41:14;8.23;;;4.37;;
61821;SDS011;47749;51.104;7.008;2024-03-17T00:41:35;7.53;;;4.38;;
61821;SDS011;47749;51.104;7.008;2024-03-17T00:41:56;7.50;;;4.53;;
61821;SDS011;47749;51.104;7.008;2024-03-17T00:42:16;6.80;;;4.43;;
61821;SDS011;47749;51.104;7.008;2024-03-17T00:42:37;7.80;;;4.60;;
61821;SDS011;47749;51.104;7.008;2024-03-17T00:42:57;7.57;;;4.50;;
61821;SDS011;47749;51.104;7.008;2024-03-17T00:43:17;6.13;;;4.30;;
61821;SDS011;47749;51.104;7.008;2024-03-17T00:43:37;6.80;;;4.57;;
61821;SDS011;47749;51.104;7.008;2024-03-17T00:43:58;7.83;;;4.67;;
61821;SDS011;47749;51.104;7.008;2024-03-17T00:44:20;8.77;;;4.80;;
61821;SDS011;47749;51.104;7.008;2024-03-17T00:44:41;7.05;;;4.93;;
61821;SDS011;47749;51.104;7.008;2024-03-17T00:45:03;8.68;;;4.68;;
61821;SDS011;47749;51.104;7.008;2024-03-17T00:45:25;7.65;;;4.40;;
61821;SDS011;47749;51.104;7.008;2024-03-17T00:45:52;7.30;;;4.50;;
61821;SDS011;47749;51.104;7.008;2024-03-17T00:46:12;6.93;;;4.68;;
61821;SDS011;47749;51.104;7.008;2024-03-17T00:46:32;6.83;;;4.40;;
61821;SDS011;47749;51.104;7.008;2024-03-17T00:46:53;7.05;;;4.40;;
61821;SDS011;47749;51.104;7.008;2024-03-17T00:47:14;7.40;;;4.30;;
61821;SDS011;47749;51.104;7.008;2024-03-17T00:47:34;7.63;;;4.43;;
61821;SDS011;47749;51.104;7.008;2024-03-17T00:47:54;7.07;;;4.17;;
61821;SDS011;47749;51.104;7.008;2024-03-17T00:48:15;6.87;;;4.30;;
61821;SDS011;47749;51.104;7.008;2024-03-17T00:48:35;7.00;;;4.30;;
61821;SDS011;47749;51.104;7.008;2024-03-17T00:48:56;5.83;;;4.10;;
61821;SDS011;47749;51.104;7.008;2024-03-17T00:49:16;6.80;;;4.20;;
61821;SDS011;47749;51.104;7.008;2024-03-17T00:49:37;6.25;;;4.30;;
61821;SDS011;47749;51.104;7.008;2024-03-17T00:49:57;6.53;;;4.50;;
61821;SDS011;47749;51.104;7.008;2024-03-17T00:50:17;7.35;;;4.32;;
61821;SDS011;47749;51.104;7.008;2024-03-17T00:50:37;8.33;;;4.40;;
61821;SDS011;47749;51.104;7.008;2024-03-17T00:50:58;7.17;;;4.20;;
61821;SDS011;47749;51.104;7.008;2024-03-17T00:51:18;6.50;;;3.92;;
61821;SDS011;47749;51.104;7.008;2024-03-17T00:51:38;6.60;;;4.10;;
61821;SDS011;47749;51.104;7.008;2024-03-17T00:51:59;6.80;;;4.10;;
61821;SDS011;47749;51.104;7.008;2024-03-17T00:52:19;7.20;;;4.22;;
61821;SDS011;47749;51.104;7.008;2024-03-17T00:52:39;8.70;;;4.57;;
61821;SDS011;47749;51.104;7.008;2024-03-17T00:52:59;7.47;;;4.53;;
61821;SDS011;47749;51.104;7.008;2024-03-17T00:53:22;6.63;;;4.50;;
61821;SDS011;47749;51.104;7.008;2024-03-17T00:53:42;7.25;;;4.45;;
61821;SDS011;47749;51.104;7.008;2024-03-17T00:54:02;8.53;;;4.50;;
61821;SDS011;47749;51.104;7.008;2024-03-17T00:54:22;8.03;;;4.37;;
61821;SDS011;47749;51.104;7.008;2024-03-17T00:54:43;7.43;;;4.30;;
61821;SDS011;47749;51.104;7.008;2024-03-17T00:55:03;7.57;;;4.50;;
61821;SDS011;47749;51.104;7.008;2024-03-17T00:55:24;8.32;;;4.75;;
61821;SDS011;47749;51.104;7.008;2024-03-17T00:55:50;7.63;;;4.30;;
61821;SDS011;47749;51.104;7.008;2024-03-17T00:56:12;7.47;;;4.22;;
61821;SDS011;47749;51.104;7.008;2024-03-17T00:56:33;6.40;;;4.38;;
61821;SDS011;47749;51.104;7.008;2024-03-17T00:56:54;8.57;;;4.53;;
61821;SDS011;47749;51.104;7.008;2024-03-17T00:57:15;8.85;;;4.22;;
61821;SDS011;47749;51.104;7.008;2024-03-17T00:57:38;6.93;;;4.30;;
61821;SDS011;47749;51.104;7.008;2024-03-17T00:57:58;6.73;;;4.20;;
61821;SDS011;47749;51.104;7.008;2024-03-17T00:58:21;8.50;;;4.57;;
61821;SDS011;47749;51.104;7.008;2024-03-17T00:58:42;8.73;;;4.57;;
61821;SDS011;47749;51.104;7.008;2024-03-17T00:59:04;6.30;;;4.28;;
61821;SDS011;47749;51.104;7.008;2024-03-17T00:59:24;7.80;;;4.47;;
61821;SDS011;47749;51.104;7.008;2024-03-17T00:59:45;7.93;;;4.80;;
61821;SDS011;47749;51.104;7.008;2024-03-17T01:00:05;6.80;;;4.70;;
61821;SDS011;47749;51.104;7.008;2024-03-17T01:00:26;7.40;;;4.40;;
61821;SDS011;47749;51.104;7.008;2024-03-17T01:00:46;6.60;;;4.37;;
61821;SDS011;47749;51.104;7.008;2024-03-17T01:01:08;8.32;;;4.70;;
61821;SDS011;47749;51.104;7.008;2024-03-17T01:01:28;7.20;;;4.40;;
61821;SDS011;47749;51.104;7.008;2024-03-17T01:01:48;6.30;;;4.20;;
61821;SDS011;47749;51.104;7.008;2024-03-17T01:02:08;7.10;;;4.30;;
61821;SDS011;47749;51.104;7.008;2024-03-17T01:02:29;7.27;;;4.23;;
61821;SDS011;47749;51.104;7.008;2024-03-17T01:02:49;6.20;;;4.37;;
61821;SDS011;47749;51.104;7.008;2024-03-17T01:03:09;7.73;;;4.70;;
61821;SDS011;47749;51.104;7.008;2024-03-17T01:03:29;7.90;;;4.32;;
61821;SDS011;47749;51.104;7.008;2024-03-17T01:03:49;7.13;;;4.10;;
61821;SDS011;47749;51.104;7.008;2024-03-17T01:04:10;8.10;;;4.37;;
61821;SDS011;47749;51.104;7.008;2024-03-17T01:04:30;8.60;;;4.70;;
61821;SDS011;47749;51.104;7.008;2024-03-17T01:04:53;9.13;;;5.00;;
61821;SDS011;47749;51.104;7.008;2024-03-17T01:05:14;10.00;;;5.03;;
61821;SDS011;47749;51.104;7.008;2024-03-17T01:05:34;9.65;;;4.93;;
61821;SDS011;47749;51.104;7.008;2024-03-17T01:06:04;8.10;;;4.43;;
61821;SDS011;47749;51.104;7.008;2024-03-17T01:06:24;8.00;;;4.50;;
61821;SDS011;47749;51.104;7.008;2024-03-17T01:06:44;8.37;;;4.50;;
61821;SDS011;47749;51.104;7.008;2024-03-17T01:07:05;8.63;;;4.78;;
61821;SDS011;47749;51.104;7.008;2024-03-17T01:07:25;9.20;;;5.17;;
61821;SDS011;47749;51.104;7.008;2024-03-17T01:07:45;9.00;;;4.87;;
61821;SDS011;47749;51.104;7.008;2024-03-17T01:08:08;7.07;;;4.72;;
61821;SDS011;47749;51.104;7.008;2024-03-17T01:08:29;7.82;;;4.65;;
61821;SDS011;47749;51.104;7.008;2024-03-17T01:08:49;8.70;;;4.55;;
61821;SDS011;47749;51.104;7.008;2024-03-17T01:09:11;7.32;;;4.80;;
61821;SDS011;47749;51.104;7.008;2024-03-17T01:09:32;7.63;;;5.07;;
61821;SDS011;47749;51.104;7.008;2024-03-17T01:09:52;9.80;;;5.27;;
61821;SDS011;47749;51.104;7.008;2024-03-17T01:10:14;8.60;;;5.40;;
61821;SDS011;47749;51.104;7.008;2024-03-17T01:10:37;8.20;;;5.10;;
61821;SDS011;47749;51.104;7.008;2024-03-17T01:10:58;8.23;;;4.90;;
61821;SDS011;47749;51.104;7.008;2024-03-17T01:11:18;7.75;;;5.00;;
61821;SDS011;47749;51.104;7.008;2024-03-17T01:11:39;7.40;;;4.67;;
61821;SDS011;47749;51.104;7.008;2024-03-17T01:11:59;7.53;;;4.70;;
61821;SDS011;47749;51.104;7.008;2024-03-17T01:12:20;8.00;;;4.80;;
61821;SDS011;47749;51.104;7.008;2024-03-17T01:12:40;8.17;;;4.77;;
61821;SDS011;47749;51.104;7.008;2024-03-17T01:13:00;8.17;;;4.83;;
61821;SDS011;47749;51.104;7.008;2024-03-17T01:13:20;8.60;;;4.77;;
61821;SDS011;47749;51.104;7.008;2024-03-17T01:13:41;9.73;;;5.13;;
61821;SDS011;47749;51.104;7.008;2024-03-17T01:14:01;8.23;;;4.67;;
61821;SDS011;47749;51.104;7.008;2024-03-17T01:14:21;6.55;;;4.38;;
61821;SDS011;47749;51.104;7.008;2024-03-17T01:14:42;8.27;;;5.10;;
61821;SDS011;47749;51.104;7.008;2024-03-17T01:15:03;8.37;;;4.93;;
61821;SDS011;47749;51.104;7.008;2024-03-17T01:15:24;7.20;;;4.78;;
61821;SDS011;47749;51.104;7.008;2024-03-17T01:15:44;7.40;;;4.80;;
61821;SDS011;47749;51.104;7.008;2024-03-17T01:16:04;7.45;;;4.50;;
61821;SDS011;47749;51.104;7.008;2024-03-17T01:16:24;7.73;;;4.50;;
61821;SDS011;47749;51.104;7.008;2024-03-17T01:16:45;9.87;;;4.70;;
61821;SDS011;47749;51.104;7.008;2024-03-17T01:17:05;8.73;;;4.53;;
61821;SDS011;47749;51.104;7.008;2024-03-17T01:17:26;7.87;;;4.73;;
61821;SDS011;47749;51.104;7.008;2024-03-17T01:17:46;10.30;;;4.82;;
61821;SDS011;47749;51.104;7.008;2024-03-17T01:18:06;7.13;;;4.43;;
61821;SDS011;47749;51.104;7.008;2024-03-17T01:18:27;7.03;;;4.55;;
61821;SDS011;47749;51.104;7.008;2024-03-17T01:18:47;8.07;;;4.37;;
61821;SDS011;47749;51.104;7.008;2024-03-17T01:19:07;9.23;;;4.30;;
61821;SDS011;47749;51.104;7.008;2024-03-17T01:19:28;8.23;;;4.40;;
61821;SDS011;47749;51.104;7.008;2024-03-17T01:19:48;7.73;;;4.57;;
61821;SDS011;47749;51.104;7.008;2024-03-17T01:20:08;7.97;;;4.60;;
61821;SDS011;47749;51.104;7.008;2024-03-17T01:20:29;7.93;;;4.60;;
61821;SDS011;47749;51.104;7.008;2024-03-17T01:20:49;7.43;;;4.50;;
61821;SDS011;47749;51.104;7.008;2024-03-17T01:21:09;7.82;;;4.50;;
61821;SDS011;47749;51.104;7.008;2024-03-17T01:21:30;8.27;;;4.37;;
61821;SDS011;47749;51.104;7.008;2024-03-17T01:21:50;7.80;;;4.33;;
61821;SDS011;47749;51.104;7.008;2024-03-17T01:22:10;7.15;;;4.30;;
61821;SDS011;47749;51.104;7.008;2024-03-17T01:22:30;6.83;;;4.47;;
61821;SDS011;47749;51.104;7.008;2024-03-17T01:22:51;9.23;;;4.70;;
61821;SDS011;47749;51.104;7.008;2024-03-17T01:23:11;7.72;;;4.50;;
61821;SDS011;47749;51.104;7.008;2024-03-17T01:23:31;5.90;;;4.13;;
61821;SDS011;47749;51.104;7.008;2024-03-17T01:23:52;7.70;;;4.20;;
61821;SDS011;47749;51.104;7.008;2024-03-17T01:24:13;7.43;;;4.23;;
61821;SDS011;47749;51.104;7.008;2024-03-17T01:24:33;7.15;;;4.63;;
61821;SDS011;47749;51.104;7.008;2024-03-17T01:24:53;9.40;;;5.00;;
61821;SDS011;47749;51.104;7.008;2024-03-17T01:25:14;8.45;;;4.75;;
61821;SDS011;47749;51.104;7.008;2024-03-17T01:25:34;7.07;;;4.50;;
61821;SDS011;47749;51.104;7.008;2024-03-17T01:25:57;6.78;;;4.47;;
61821;SDS011;47749;51.104;7.008;2024-03-17T01:26:17;8.00;;;4.60;;
61821;SDS011;47749;51.104;7.008;2024-03-17T01:26:37;7.72;;;4.32;;
61821;SDS011;47749;51.104;7.008;2024-03-17T01:26:58;8.07;;;4.50;;
61821;SDS011;47749;51.104;7.008;2024-03-17T01:27:19;8.20;;;4.50;;
61821;SDS011;47749;51.104;7.008;2024-03-17T01:27:39;7.70;;;4.40;;
61821;SDS011;47749;51.104;7.008;2024-03-17T01:27:59;6.90;;;4.40;;
61821;SDS011;47749;51.104;7.008;2024-03-17T01:28:19;6.67;;;4.57;;
61821;SDS011;47749;51.104;7.008;2024-03-17T01:28:40;6.23;;;4.33;;
61821;SDS011;47749;51.104;7.008;2024-03-17T01:29:00;6.90;;;4.47;;
61821;SDS011;47749;51.104;7.008;2024-03-17T01:29:21;7.05;;;4.40;;
61821;SDS011;47749;51.104;7.008;2024-03-17T01:29:42;7.13;;;4.10;;
61821;SDS011;47749;51.104;7.008;2024-03-17T01:30:03;6.43;;;4.10;;
61821;SDS011;47749;51.104;7.008;2024-03-17T01:30:23;6.67;;;4.30;;
61821;SDS011;47749;51.104;7.008;2024-03-17T01:30:44;8.30;;;4.55;;
61821;SDS011;47749;51.104;7.008;2024-03-17T01:31:05;8.25;;;4.50;;
61821;SDS011;47749;51.104;7.008;2024-03-17T01:31:26;8.17;;;4.50;;
61821;SDS011;47749;51.104;7.008;2024-03-17T01:31:46;8.40;;;4.40;;
61821;SDS011;47749;51.104;7.008;2024-03-17T01:32:07;8.55;;;4.45;;
61821;SDS011;47749;51.104;7.008;2024-03-17T01:32:27;7.73;;;4.57;;
61821;SDS011;47749;51.104;7.008;2024-03-17T01:32:47;8.03;;;4.50;;
61821;SDS011;47749;51.104;7.008;2024-03-17T01:33:08;6.68;;;4.32;;
61821;SDS011;47749;51.104;7.008;2024-03-17T01:33:30;7.53;;;4.43;;
61821;SDS011;47749;51.104;7.008;2024-03-17T01:33:50;6.63;;;4.35;;
61821;SDS011;47749;51.104;7.008;2024-03-17T01:34:11;6.40;;;4.23;;
61821;SDS011;47749;51.104;7.008;2024-03-17T01:34:31;6.43;;;4.40;;
61821;SDS011;47749;51.104;7.008;2024-03-17T01:34:51;8.00;;;4.30;;
61821;SDS011;47749;51.104;7.008;2024-03-17T01:35:11;8.17;;;4.20;;
61821;SDS011;47749;51.104;7.008;2024-03-17T01:35:32;6.50;;;4.10;;
61821;SDS011;47749;51.104;7.008;2024-03-17T01:35:52;8.07;;;4.45;;
61821;SDS011;47749;51.104;7.008;2024-03-17T01:36:13;7.53;;;4.38;;
61821;SDS011;47749;51.104;7.008;2024-03-17T01:36:33;6.83;;;4.40;;
61821;SDS011;47749;51.104;7.008;2024-03-17T01:36:54;7.90;;;4.40;;
61821;SDS011;47749;51.104;7.008;2024-03-17T01:37:14;7.13;;;4.47;;
61821;SDS011;47749;51.104;7.008;2024-03-17T01:37:35;7.93;;;4.50;;
61821;SDS011;47749;51.104;7.008;2024-03-17T01:37:55;7.10;;;4.40;;
61821;SDS011;47749;51.104;7.008;2024-03-17T01:38:15;7.83;;;4.77;;
61821;SDS011;47749;51.104;7.008;2024-03-17T01:38:35;7.27;;;4.50;;
61821;SDS011;47749;51.104;7.008;2024-03-17T01:38:56;7.47;;;4.60;;
61821;SDS011;47749;51.104;7.008;2024-03-17T01:39:16;6.83;;;4.73;;
61821;SDS011;47749;51.104;7.008;2024-03-17T01:39:37;7.97;;;4.78;;
61821;SDS011;47749;51.104;7.008;2024-03-17T01:39:58;9.17;;;4.70;;
61821;SDS011;47749;51.104;7.008;2024-03-17T01:40:18;8.30;;;4.85;;
61821;SDS011;47749;51.104;7.008;2024-03-17T01:40:39;6.73;;;4.73;;
61821;SDS011;47749;51.104;7.008;2024-03-17T01:40:59;7.90;;;4.60;;
61821;SDS011;47749;51.104;7.008;2024-03-17T01:41:20;7.97;;;5.00;;
61821;SDS011;47749;51.104;7.008;2024-03-17T01:41:40;9.20;;;4.80;;
61821;SDS011;47749;51.104;7.008;2024-03-17T01:42:00;9.53;;;4.60;;
61821;SDS011;47749;51.104;7.008;2024-03-17T01:42:21;9.00;;;4.70;;
61821;SDS011;47749;51.104;7.008;2024-03-17T01:42:41;8.32;;;4.60;;
61821;SDS011;47749;51.104;7.008;2024-03-17T01:43:02;7.50;;;4.50;;
61821;SDS011;47749;51.104;7.008;2024-03-17T01:43:22;7.88;;;4.30;;
61821;SDS011;47749;51.104;7.008;2024-03-17T01:43:42;7.83;;;4.40;;
61821;SDS011;47749;51.104;7.008;2024-03-17T01:44:03;6.97;;;4.53;;
61821;SDS011;47749;51.104;7.008;2024-03-17T01:44:24;6.70;;;4.50;;
61821;SDS011;47749;51.104;7.008;2024-03-17T01:44:45;6.72;;;4.60;;
61821;SDS011;47749;51.104;7.008;2024-03-17T01:45:44;7.10;;;4.32;;
61821;SDS011;47749;51.104;7.008;2024-03-17T01:46:05;7.20;;;4.43;;
61821;SDS011;47749;51.104;7.008;2024-03-17T01:46:25;7.77;;;4.50;;
61821;SDS011;47749;51.104;7.008;2024-03-17T01:46:46;7.20;;;4.50;;
61821;SDS011;47749;51.104;7.008;2024-03-17T01:47:06;7.37;;;4.87;;
61821;SDS011;47749;51.104;7.008;2024-03-17T01:47:28;7.03;;;4.50;;
61821;SDS011;47749;51.104;7.008;2024-03-17T01:47:49;6.70;;;4.30;;
61821;SDS011;47749;51.104;7.008;2024-03-17T01:48:12;9.07;;;4.70;;
61821;SDS011;47749;51.104;7.008;2024-03-17T01:48:33;9.30;;;4.80;;
61821;SDS011;47749;51.104;7.008;2024-03-17T01:48:54;6.90;;;4.60;;
61821;SDS011;47749;51.104;7.008;2024-03-17T01:49:14;7.03;;;4.60;;
61821;SDS011;47749;51.104;7.008;2024-03-17T01:49:36;7.80;;;4.40;;
61821;SDS011;47749;51.104;7.008;2024-03-17T01:49:56;7.05;;;4.30;;
61821;SDS011;47749;51.104;7.008;2024-03-17T01:50:16;7.40;;;4.43;;
61821;SDS011;47749;51.104;7.008;2024-03-17T01:50:39;8.55;;;5.00;;
61821;SDS011;47749;51.104;7.008;2024-03-17T01:51:00;8.63;;;5.37;;
61821;SDS011;47749;51.104;7.008;2024-03-17T01:51:21;9.32;;;5.22;;
61821;SDS011;47749;51.104;7.008;2024-03-17T01:51:43;7.90;;;5.00;;
61821;SDS011;47749;51.104;7.008;2024-03-17T01:52:04;7.05;;;4.85;;
61821;SDS011;47749;51.104;7.008;2024-03-17T01:52:26;8.25;;;4.90;;
61821;SDS011;47749;51.104;7.008;2024-03-17T01:52:46;7.67;;;4.87;;
61821;SDS011;47749;51.104;7.008;2024-03-17T01:53:07;8.80;;;4.82;;
61821;SDS011;47749;51.104;7.008;2024-03-17T01:53:28;7.82;;;4.93;;
61821;SDS011;47749;51.104;7.008;2024-03-17T01:53:49;9.10;;;5.25;;
61821;SDS011;47749;51.104;7.008;2024-03-17T01:54:10;9.07;;;5.10;;
61821;SDS011;47749;51.104;7.008;2024-03-17T01:54:30;8.23;;;4.90;;
61821;SDS011;47749;51.104;7.008;2024-03-17T01:54:51;8.40;;;5.20;;
61821;SDS011;47749;51.104;7.008;2024-03-17T01:55:11;10.63;;;5.60;;
61821;SDS011;47749;51.104;7.008;2024-03-17T01:55:35;10.25;;;5.20;;
61821;SDS011;47749;51.104;7.008;2024-03-17T01:55:56;8.27;;;5.28;;
61821;SDS011;47749;51.104;7.008;2024-03-17T01:56:17;8.60;;;5.15;;
61821;SDS011;47749;51.104;7.008;2024-03-17T01:56:37;8.90;;;5.07;;
61821;SDS011;47749;51.104;7.008;2024-03-17T01:56:57;10.00;;;5.00;;
61821;SDS011;47749;51.104;7.008;2024-03-17T01:57:18;8.95;;;4.97;;
61821;SDS011;47749;51.104;7.008;2024-03-17T01:57:38;8.43;;;4.87;;
61821;SDS011;47749;51.104;7.008;2024-03-17T01:57:59;8.57;;;5.30;;
61821;SDS011;47749;51.104;7.008;2024-03-17T01:58:19;9.45;;;5.28;;
61821;SDS011;47749;51.104;7.008;2024-03-17T01:58:40;8.52;;;5.05;;
61821;SDS011;47749;51.104;7.008;2024-03-17T01:59:02;9.20;;;5.45;;
61821;SDS011;47749;51.104;7.008;2024-03-17T01:59:24;9.75;;;5.30;;
61821;SDS011;47749;51.104;7.008;2024-03-17T01:59:45;8.60;;;5.10;;
61821;SDS011;47749;51.104;7.008;2024-03-17T02:00:06;8.85;;;4.85;;
61821;SDS011;47749;51.104;7.008;2024-03-17T02:00:28;8.60;;;4.90;;
61821;SDS011;47749;51.104;7.008;2024-03-17T02:00:51;9.02;;;4.90;;
61821;SDS011;47749;51.104;7.008;2024-03-17T02:01:12;8.80;;;5.07;;
61821;SDS011;47749;51.104;7.008;2024-03-17T02:01:36;7.93;;;5.07;;
61821;SDS011;47749;51.104;7.008;2024-03-17T02:01:56;7.75;;;5.22;;
61821;SDS011;47749;51.104;7.008;2024-03-17T02:02:17;7.45;;;5.07;;
61821;SDS011;47749;51.104;7.008;2024-03-17T02:02:37;7.97;;;5.23;;
61821;SDS011;47749;51.104;7.008;2024-03-17T02:02:58;10.00;;;5.50;;
61821;SDS011;47749;51.104;7.008;2024-03-17T02:03:18;8.37;;;5.17;;
61821;SDS011;47749;51.104;7.008;2024-03-17T02:03:38;8.73;;;5.13;;
61821;SDS011;47749;51.104;7.008;2024-03-17T02:03:59;9.57;;;5.72;;
61821;SDS011;47749;51.104;7.008;2024-03-17T02:04:19;12.47;;;6.00;;
61821;SDS011;47749;51.104;7.008;2024-03-17T02:04:41;9.63;;;5.28;;
61821;SDS011;47749;51.104;7.008;2024-03-17T02:05:01;8.03;;;5.40;;
61821;SDS011;47749;51.104;7.008;2024-03-17T02:05:23;9.00;;;4.90;;
61821;SDS011;47749;51.104;7.008;2024-03-17T02:05:43;7.70;;;4.90;;